Time;durP1;ratioP1;P1;durP2;ratioP2;P2;SDS_P1;SDS_P2;PMS_P1;PMS_P2;Temp;Humidity;BMP_temperature;BMP_pressure;BME280_temperature;BME280_humidity;BME280_pressure;Samples;Min_cycle;Max_cycle;Signal;HPM_P1;HPM_P2
2022/11/27 00:01:26;;;;;;;0.10;0.10;;;;;;;18.44;100.00;99276.88;7393692;19;20016;-57
2022/11/27 00:03:54;;;;;;;0.00;0.00;;;;;;;18.33;100.00;99283.50;7391992;19;20017;-57
2022/11/27 00:06:23;;;;;;;0.10;0.00;;;;;;;18.56;100.00;99261.28;7391303;19;20459;-56
2022/11/27 00:08:49;;;;;;;0.10;0.10;;;;;;;18.60;100.00;99256.06;7396207;19;20010;-57
2022/11/27 00:11:21;;;;;;;0.10;0.00;;;;;;;18.51;100.00;99250.88;7392132;19;20031;-57
2022/11/27 00:13:49;;;;;;;0.20;0.10;;;;;;;18.57;100.00;99262.78;7391676;19;20468;-57
2022/11/27 00:16:16;;;;;;;0.75;0.32;;;;;;;18.66;100.00;99259.53;7391683;19;20034;-57
2022/11/27 00:18:43;;;;;;;0.20;0.10;;;;;;;18.55;100.00;99291.56;7391575;19;20041;-57
2022/11/27 00:21:12;;;;;;;0.10;0.00;;;;;;;18.42;100.00;99285.13;7392423;19;20062;-57
2022/11/27 00:23:39;;;;;;;0.00;0.00;;;;;;;18.41;100.00;99264.63;7390593;19;20070;-56
2022/11/27 00:26:06;;;;;;;0.10;0.00;;;;;;;18.40;100.00;99259.53;7391040;19;20011;-56
2022/11/27 00:28:33;;;;;;;0.17;0.10;;;;;;;18.32;100.00;99272.78;7389546;19;20021;-56
2022/11/27 00:31:02;;;;;;;0.10;0.00;;;;;;;18.47;100.00;99282.25;7389217;19;20359;-56
2022/11/27 00:33:29;;;;;;;0.00;0.00;;;;;;;18.58;100.00;99269.97;7391069;19;20472;-56
2022/11/27 00:35:55;;;;;;;0.00;0.00;;;;;;;18.46;100.00;99286.34;7391177;19;20018;-56
2022/11/27 00:38:21;;;;;;;0.00;0.00;;;;;;;18.54;100.00;99270.28;7391392;19;20039;-56
2022/11/27 00:40:47;;;;;;;0.10;0.10;;;;;;;18.67;100.00;99272.31;7390417;19;20003;-56
2022/11/27 00:43:14;;;;;;;0.13;0.03;;;;;;;18.62;100.00;99276.78;7386393;19;20074;-56
2022/11/27 00:45:40;;;;;;;0.00;0.00;;;;;;;18.58;100.00;99281.25;7389164;19;20010;-56
2022/11/27 00:48:06;;;;;;;0.03;0.03;;;;;;;18.40;100.00;99273.63;7390602;19;20086;-56
2022/11/27 00:50:32;;;;;;;0.20;0.05;;;;;;;18.34;100.00;99279.41;7389309;19;20059;-56
2022/11/27 00:52:58;;;;;;;0.10;0.00;;;;;;;18.30;100.00;99281.03;7390703;19;20010;-56
2022/11/27 00:55:25;;;;;;;0.20;0.10;;;;;;;18.12;100.00;99280.59;7393219;19;20011;-56
2022/11/27 00:57:51;;;;;;;0.13;0.10;;;;;;;18.17;100.00;99276.91;7390230;19;20082;-56
2022/11/27 01:00:18;;;;;;;2.38;0.05;;;;;;;18.32;100.00;99272.78;7389490;19;20011;-56
2022/11/27 01:02:44;;;;;;;0.38;0.30;;;;;;;18.40;100.00;99277.22;7393358;19;20026;-56
2022/11/27 01:05:10;;;;;;;0.10;0.10;;;;;;;18.26;100.00;99272.13;7389487;19;20003;-56
2022/11/27 01:07:36;;;;;;;0.08;0.00;;;;;;;18.25;100.00;99279.06;7391939;19;20352;-56
2022/11/27 01:10:03;;;;;;;0.00;0.00;;;;;;;18.10;100.00;99304.97;7388875;19;20026;-56
2022/11/27 01:12:29;;;;;;;0.25;0.10;;;;;;;18.14;100.00;99306.19;7394517;19;20025;-56
2022/11/27 01:14:55;;;;;;;0.05;0.05;;;;;;;18.29;100.00;99285.91;7389885;19;20032;-55
2022/11/27 01:17:21;;;;;;;0.20;0.10;;;;;;;18.31;100.00;99288.16;7388498;19;20040;-56
2022/11/27 01:19:47;;;;;;;0.30;0.00;;;;;;;18.22;100.00;99282.97;7388387;19;20021;-55
2022/11/27 01:22:13;;;;;;;0.47;0.20;;;;;;;18.26;100.00;99284.16;7390317;19;20040;-56
2022/11/27 01:24:40;;;;;;;0.32;0.13;;;;;;;18.38;100.00;99279.06;7391355;19;20010;-55
2022/11/27 01:27:06;;;;;;;0.30;0.00;;;;;;;18.21;100.00;99284.28;7389068;19;20021;-56
2022/11/27 01:29:32;;;;;;;0.00;0.00;;;;;;;18.48;100.00;99289.38;7388436;19;20041;-56
2022/11/27 01:31:58;;;;;;;0.20;0.10;;;;;;;18.47;100.00;99287.13;7389962;19;20033;-55
2022/11/27 01:34:24;;;;;;;0.10;0.10;;;;;;;18.35;100.00;99278.09;7387688;19;20351;-55
2022/11/27 01:36:50;;;;;;;0.57;0.10;;;;;;;18.38;100.00;99293.16;7389500;19;20391;-55
2022/11/27 01:39:19;;;;;;;0.20;0.10;;;;;;;18.47;100.00;99279.41;7387988;19;20467;-55
2022/11/27 01:41:46;;;;;;;0.30;0.30;;;;;;;18.46;100.00;99285.59;7391233;19;20018;-55
2022/11/27 01:44:24;;;;;;;0.30;0.10;;;;;;;18.64;100.00;99279.06;7389267;19;20018;-55
2022/11/27 01:46:57;;;;;;;0.25;0.10;;;;;;;18.67;100.00;99280.78;7388645;19;20011;-55
2022/11/27 01:49:39;;;;;;;0.10;0.10;;;;;;;18.80;100.00;99275.09;7388726;19;20026;-55
2022/11/27 01:52:10;;;;;;;0.10;0.10;;;;;;;18.51;100.00;99290.34;7389276;19;20018;-55
2022/11/27 01:54:55;;;;;;;;;;;;;;;18.45;100.00;99301.00;7392628;19;20018;-55
2022/11/27 01:57:39;;;;;;;0.38;0.10;;;;;;;18.50;100.00;99291.66;7394286;19;19929;-55
2022/11/27 02:00:08;;;;;;;0.10;0.10;;;;;;;18.60;100.00;99298.38;7392281;19;20015;-55
2022/11/27 02:02:42;;;;;;;0.10;0.03;;;;;;;18.43;100.00;99297.94;7398221;19;20025;-55
2022/11/27 02:05:10;;;;;;;0.10;0.10;;;;;;;18.46;100.00;99277.13;7393129;19;20011;-55
2022/11/27 02:07:36;;;;;;;0.45;0.13;;;;;;;18.38;100.00;99290.34;7394149;19;20116;-55
2022/11/27 02:10:03;;;;;;;0.10;0.10;;;;;;;18.22;100.00;99299.88;7391958;19;20011;-55
2022/11/27 02:12:39;;;;;;;0.55;0.20;;;;;;;18.12;100.00;99291.88;7399146;19;20007;-55
2022/11/27 02:15:30;;;;;;;0.82;0.15;;;;;;;18.16;100.00;99297.16;7395646;19;20011;-55
2022/11/27 02:18:14;;;;;;;0.30;0.10;;;;;;;18.21;100.00;99293.50;7393896;19;20372;-64
2022/11/27 02:21:01;;;;;;;0.70;0.30;;;;;;;18.33;100.00;99288.38;7396131;19;20525;-64
2022/11/27 02:23:45;;;;;;;0.75;0.22;;;;;;;18.26;100.00;99300.31;7395431;19;20014;-63
2022/11/27 02:26:26;;;;;;;0.35;0.15;;;;;;;18.23;100.00;99290.91;7394808;19;20653;-64
2022/11/27 02:29:05;;;;;;;0.10;0.10;;;;;;;18.25;100.00;99281.88;7394476;19;20006;-63
2022/11/27 02:31:50;;;;;;;0.00;0.00;;;;;;;18.26;100.00;99280.59;7394855;19;20463;-63
2022/11/27 02:34:20;;;;;;;0.10;0.00;;;;;;;18.30;100.00;99272.56;7394040;19;20019;-63
2022/11/27 02:36:54;;;;;;;0.00;0.00;;;;;;;18.33;100.00;99271.47;7393303;19;20007;-63
2022/11/27 02:39:31;;;;;;;0.00;0.00;;;;;;;18.16;100.00;99283.84;7393731;19;20533;-63
2022/11/27 02:42:06;;;;;;;0.10;0.10;;;;;;;17.94;100.00;99281.44;7396776;19;20634;-63
2022/11/27 02:44:37;;;;;;;0.10;0.10;;;;;;;17.81;100.00;99278.59;7394084;19;20496;-63
2022/11/27 02:47:04;;;;;;;0.10;0.00;;;;;;;17.75;100.00;99275.13;7394411;19;20018;-63
2022/11/27 02:49:31;;;;;;;0.40;0.20;;;;;;;17.87;100.00;99282.06;7394683;19;20035;-63
2022/11/27 02:51:59;;;;;;;0.10;0.10;;;;;;;17.81;100.00;99284.22;7393777;19;20418;-63
2022/11/27 02:54:28;;;;;;;0.30;0.25;;;;;;;17.75;100.00;99285.63;7395594;19;20022;-63
2022/11/27 02:56:58;;;;;;;2.95;0.32;;;;;;;17.94;100.00;99289.88;7392046;19;20019;-63
2022/11/27 02:59:28;;;;;;;7.68;1.95;;;;;;;17.91;100.00;99282.50;7394066;19;20460;-64
2022/11/27 03:01:58;;;;;;;0.20;0.20;;;;;;;17.93;100.00;99279.16;7396339;19;20412;-64
2022/11/27 03:04:33;;;;;;;0.15;0.08;;;;;;;17.88;100.00;99272.34;7393059;19;20027;-64
2022/11/27 03:07:04;;;;;;;0.45;0.17;;;;;;;17.81;100.00;99272.22;7391925;19;20041;-61
2022/11/27 03:09:37;;;;;;;0.10;0.00;;;;;;;17.81;100.00;99264.53;7392375;19;20354;-61
2022/11/27 03:12:06;;;;;;;0.52;0.10;;;;;;;17.74;100.00;99284.88;7397139;19;20018;-61
2022/11/27 03:14:33;;;;;;;6.57;0.75;;;;;;;17.71;100.00;99285.19;7391927;19;20370;-61
2022/11/27 03:17:32;;;;;;;1.85;0.55;;;;;;;17.65;100.00;99288.09;7393228;19;20014;-61
2022/11/27 03:20:16;;;;;;;0.00;0.00;;;;;;;17.73;100.00;99277.72;7390628;19;20349;-61
2022/11/27 03:22:42;;;;;;;0.43;0.28;;;;;;;17.81;100.00;99281.41;7397021;19;20030;-64
2022/11/27 03:25:08;;;;;;;0.32;0.30;;;;;;;17.72;100.00;99292.34;7395267;19;20010;-63
2022/11/27 03:27:39;;;;;;;0.47;0.25;;;;;;;17.66;100.00;99295.25;7393257;19;20091;-64
2022/11/27 03:30:09;;;;;;;0.10;0.10;;;;;;;17.71;100.00;99302.88;7396482;19;20014;-64
2022/11/27 03:32:35;;;;;;;0.28;0.28;;;;;;;17.81;100.00;99300.38;7402046;19;20365;-64
2022/11/27 03:35:04;;;;;;;4.00;1.17;;;;;;;17.93;100.00;99302.44;7397610;19;20003;-64
2022/11/27 03:37:30;;;;;;;4.30;0.63;;;;;;;17.98;100.00;99293.16;7398304;19;20015;-63
2022/11/27 03:39:56;;;;;;;0.10;0.10;;;;;;;17.99;100.00;99291.84;7397625;19;20039;-64
2022/11/27 03:42:31;;;;;;;0.10;0.10;;;;;;;18.12;100.00;99297.50;7401760;19;20483;-63
2022/11/27 03:45:21;;;;;;;0.08;0.08;;;;;;;18.02;100.00;99295.63;7396132;19;20017;-63
2022/11/27 03:48:17;;;;;;;0.20;0.20;;;;;;;17.99;100.00;99305.94;7394061;19;20011;-63
2022/11/27 03:51:04;;;;;;;0.00;0.00;;;;;;;18.10;100.00;99314.16;7393947;19;20029;-57
2022/11/27 03:53:41;;;;;;;0.00;0.00;;;;;;;17.85;100.00;99312.84;7395426;19;20014;-64
2022/11/27 03:56:16;;;;;;;1.15;0.20;;;;;;;17.90;100.00;99314.81;7394294;19;20362;-64
2022/11/27 03:59:03;;;;;;;0.82;0.25;;;;;;;18.06;100.00;99310.91;7392778;19;20006;-64
2022/11/27 04:01:30;;;;;;;0.22;0.22;;;;;;;18.10;100.00;99310.63;7396039;19;20037;-64
2022/11/27 04:03:56;;;;;;;0.10;0.00;;;;;;;18.10;100.00;99314.16;7394228;19;20019;-63
2022/11/27 04:06:22;;;;;;;6.55;1.05;;;;;;;18.01;100.00;99311.81;7394098;19;20515;-63
2022/11/27 04:08:48;;;;;;;0.50;0.38;;;;;;;18.11;100.00;99321.34;7394772;19;20017;-64
2022/11/27 04:11:15;;;;;;;4.90;0.20;;;;;;;17.87;100.00;99321.50;7391289;19;20039;-63
2022/11/27 04:13:41;;;;;;;0.73;0.73;;;;;;;17.83;100.00;99328.75;7388864;19;20030;-64
2022/11/27 04:16:07;;;;;;;0.55;0.40;;;;;;;17.79;100.00;99333.94;7390909;19;20045;-64
2022/11/27 04:18:33;;;;;;;0.93;0.47;;;;;;;17.72;100.00;99326.13;7390954;19;20014;-63
2022/11/27 04:21:00;;;;;;;0.17;0.17;;;;;;;17.63;100.00;99338.56;7392405;19;20043;-64
2022/11/27 04:23:26;;;;;;;9.93;0.65;;;;;;;17.55;100.00;99329.22;7391344;19;20642;-63
2022/11/27 04:25:52;;;;;;;1.85;1.23;;;;;;;17.53;100.00;99336.69;7395096;19;20032;-64
2022/11/27 04:28:18;;;;;;;4.05;1.27;;;;;;;17.60;100.00;99341.69;7391303;19;20018;-64
2022/11/27 04:30:44;;;;;;;0.08;0.03;;;;;;;17.53;100.00;99334.63;7389075;19;20476;-63
2022/11/27 04:33:10;;;;;;;8.60;0.63;;;;;;;17.41;100.00;99336.09;7390704;19;20006;-64
2022/11/27 04:35:36;;;;;;;0.52;0.52;;;;;;;17.17;100.00;99336.19;7390530;19;20439;-64
2022/11/27 04:38:03;;;;;;;0.20;0.20;;;;;;;17.16;100.00;99326.97;7390676;19;20015;-63
2022/11/27 04:40:29;;;;;;;5.47;0.75;;;;;;;17.17;100.00;99333.38;7389788;19;20021;-64
2022/11/27 04:42:55;;;;;;;0.98;0.22;;;;;;;17.30;100.00;99336.25;7391119;19;20097;-63
2022/11/27 04:45:21;;;;;;;5.50;0.30;;;;;;;17.14;100.00;99337.25;7389649;19;20562;-64
2022/11/27 04:47:47;;;;;;;2.40;0.20;;;;;;;17.19;100.00;99344.84;7389138;19;20467;-64
2022/11/27 04:50:13;;;;;;;0.10;0.10;;;;;;;17.30;100.00;99336.25;7389708;19;20018;-64
2022/11/27 04:52:39;;;;;;;0.20;0.20;;;;;;;17.32;100.00;99339.28;7394761;19;20014;-63
2022/11/27 04:55:06;;;;;;;0.10;0.00;;;;;;;17.27;100.00;99331.69;7393096;19;20007;-63
2022/11/27 04:57:32;;;;;;;0.10;0.10;;;;;;;17.13;100.00;99342.09;7390962;19;20070;-63
2022/11/27 04:59:58;;;;;;;0.00;0.00;;;;;;;17.21;100.00;99359.16;7389181;19;20391;-64
2022/11/27 05:02:25;;;;;;;0.47;0.47;;;;;;;17.36;100.00;99365.84;7393482;19;20015;-63
2022/11/27 05:04:51;;;;;;;0.10;0.10;;;;;;;17.37;100.00;99369.41;7390889;19;20011;-64
2022/11/27 05:07:17;;;;;;;2.83;0.25;;;;;;;17.47;100.00;99367.72;7389618;19;20262;-63
2022/11/27 05:09:43;;;;;;;1.00;0.55;;;;;;;17.46;100.00;99369.00;7388898;19;20025;-63
2022/11/27 05:12:09;;;;;;;0.20;0.17;;;;;;;17.57;100.00;99366.06;7393378;19;20478;-63
2022/11/27 05:14:35;;;;;;;0.10;0.00;;;;;;;17.61;100.00;99372.13;7389291;19;20022;-63
2022/11/27 05:17:01;;;;;;;2.55;1.15;;;;;;;17.42;100.00;99371.38;7388460;19;20070;-63
2022/11/27 05:19:29;;;;;;;0.57;0.57;;;;;;;17.49;100.00;99370.75;7389479;19;20106;-63
2022/11/27 05:21:56;;;;;;;4.95;1.17;;;;;;;17.31;100.00;99365.91;7392211;19;20381;-64
2022/11/27 05:24:26;;;;;;;6.90;2.28;;;;;;;17.47;100.00;99362.09;7391343;19;20476;-63
2022/11/27 05:26:52;;;;;;;0.60;0.60;;;;;;;17.52;100.00;99371.78;7387846;19;20018;-64
2022/11/27 05:29:19;;;;;;;15.43;1.15;;;;;;;17.54;100.00;99372.78;7390437;19;20010;-64
2022/11/27 05:31:46;;;;;;;5.32;0.25;;;;;;;17.61;100.00;99382.63;7395603;19;20010;-63
2022/11/27 05:34:12;;;;;;;0.63;0.35;;;;;;;17.50;100.00;99375.13;7396726;19;20019;-64
2022/11/27 05:36:39;;;;;;;0.10;0.10;;;;;;;17.45;100.00;99375.94;7397155;19;20022;-63
2022/11/27 05:39:07;;;;;;;7.50;1.98;;;;;;;17.44;100.00;99382.84;7397339;19;20049;-64
2022/11/27 05:41:34;;;;;;;1.27;0.80;;;;;;;17.40;100.00;99386.00;7398830;19;20358;-63
2022/11/27 05:44:01;;;;;;;0.30;0.30;;;;;;;17.38;100.00;99388.59;7396494;19;20010;-64
2022/11/27 05:46:27;;;;;;;2.92;0.45;;;;;;;17.40;100.00;99382.41;7395090;19;20106;-64
2022/11/27 05:48:54;;;;;;;0.85;0.85;;;;;;;17.32;100.00;99398.41;7395857;19;20015;-63
2022/11/27 05:51:20;;;;;;;0.50;0.43;;;;;;;17.26;100.00;99389.28;7394425;19;20019;-64
2022/11/27 05:53:46;;;;;;;0.50;0.50;;;;;;;17.13;100.00;99392.00;7396498;19;20640;-63
2022/11/27 05:56:15;;;;;;;2.60;0.85;;;;;;;17.04;100.00;99392.38;7396218;19;20350;-64
2022/11/27 05:58:43;;;;;;;5.25;0.68;;;;;;;17.10;100.00;99395.88;7396367;19;20460;-63
2022/11/27 06:01:11;;;;;;;1.75;0.43;;;;;;;17.04;100.00;99395.19;7396561;19;20015;-63
2022/11/27 06:03:38;;;;;;;1.95;0.80;;;;;;;16.81;100.00;99388.31;7395142;19;20007;-63
2022/11/27 06:06:05;;;;;;;4.30;0.25;;;;;;;16.70;100.00;99392.03;7394922;19;20015;-63
2022/11/27 06:08:32;;;;;;;2.35;0.45;;;;;;;16.80;100.00;99393.19;7399642;19;20011;-63
2022/11/27 06:10:58;;;;;;;0.38;0.38;;;;;;;16.99;100.00;99390.41;7395357;19;20019;-63
2022/11/27 06:13:24;;;;;;;0.40;0.40;;;;;;;16.84;100.00;99401.31;7396309;19;20714;-63
2022/11/27 06:15:50;;;;;;;1.38;0.40;;;;;;;16.77;100.00;99407.53;7395893;19;20019;-63
2022/11/27 06:18:16;;;;;;;0.43;0.30;;;;;;;16.56;100.00;99408.03;7395273;19;20014;-63
2022/11/27 06:20:42;;;;;;;2.17;0.70;;;;;;;16.47;100.00;99394.31;7395539;19;20018;-63
2022/11/27 06:23:08;;;;;;;0.90;0.20;;;;;;;16.42;100.00;99397.91;7395263;19;20333;-63
2022/11/27 06:25:34;;;;;;;14.20;0.57;;;;;;;16.31;100.00;99400.06;7398496;19;20058;-63
2022/11/27 06:28:00;;;;;;;3.92;0.98;;;;;;;16.29;100.00;99414.66;7395384;19;20010;-63
2022/11/27 06:30:26;;;;;;;15.75;2.08;;;;;;;16.21;100.00;99408.09;7395111;19;20018;-63
2022/11/27 06:32:53;;;;;;;0.10;0.00;;;;;;;16.23;100.00;99394.28;7394897;19;20018;-64
2022/11/27 06:35:19;;;;;;;5.78;2.17;;;;;;;16.18;100.00;99392.28;7396090;19;20734;-63
2022/11/27 06:37:45;;;;;;;0.63;0.30;;;;;;;16.02;100.00;99401.63;7394753;19;20014;-63
2022/11/27 06:40:11;;;;;;;1.30;0.38;;;;;;;15.91;100.00;99402.50;7394273;19;20010;-64
2022/11/27 06:42:37;;;;;;;0.60;0.60;;;;;;;15.81;100.00;99406.13;7399107;19;20070;-63
2022/11/27 06:45:04;;;;;;;3.22;0.75;;;;;;;15.84;100.00;99396.69;7393570;19;20017;-63
2022/11/27 06:47:30;;;;;;;0.10;0.10;;;;;;;15.72;100.00;99392.44;7394300;19;20357;-63
2022/11/27 06:49:56;;;;;;;3.05;0.50;;;;;;;15.77;100.00;99402.84;7395336;19;20018;-63
2022/11/27 06:52:22;;;;;;;2.40;0.43;;;;;;;15.84;100.00;99407.91;7398380;19;20096;-63
2022/11/27 06:54:48;;;;;;;3.92;0.77;;;;;;;15.92;100.00;99425.72;7396589;19;20364;-63
2022/11/27 06:57:15;;;;;;;6.22;0.70;;;;;;;15.85;100.00;99420.69;7391833;19;20014;-63
2022/11/27 06:59:41;;;;;;;0.25;0.25;;;;;;;15.84;100.00;99417.09;7394530;19;20459;-63
2022/11/27 07:02:13;;;;;;;4.47;0.50;;;;;;;15.90;100.00;99406.59;7397186;19;20011;-63
2022/11/27 07:04:40;;;;;;;0.20;0.20;;;;;;;15.92;100.00;99397.63;7393341;19;20486;-63
2022/11/27 07:07:06;;;;;;;1.38;0.25;;;;;;;15.81;100.00;99397.72;7395693;19;20010;-63
2022/11/27 07:09:32;;;;;;;0.68;0.45;;;;;;;15.90;100.00;99400.19;7392456;19;20353;-63
2022/11/27 07:11:58;;;;;;;0.10;0.10;;;;;;;16.12;100.00;99394.38;7393903;19;20011;-63
2022/11/27 07:14:24;;;;;;;0.10;0.10;;;;;;;16.18;100.00;99403.53;7393649;19;20074;-63
2022/11/27 07:16:50;;;;;;;0.20;0.20;;;;;;;16.15;100.00;99398.97;7392850;19;20041;-63
2022/11/27 07:19:16;;;;;;;0.90;0.45;;;;;;;16.20;100.00;99395.31;7393794;19;20015;-63
2022/11/27 07:21:42;;;;;;;7.43;0.75;;;;;;;16.19;100.00;99393.06;7394272;19;20026;-63
2022/11/27 07:24:08;;;;;;;0.75;0.30;;;;;;;16.26;100.00;99393.25;7394187;19;20018;-63
2022/11/27 07:26:35;;;;;;;3.15;1.05;;;;;;;16.13;100.00;99400.78;7390730;19;20078;-63
2022/11/27 07:29:01;;;;;;;0.00;0.00;;;;;;;16.02;100.00;99384.78;7392409;19;20074;-63
2022/11/27 07:31:29;;;;;;;1.02;0.63;;;;;;;15.93;100.00;99399.94;7393652;19;20443;-63
2022/11/27 07:33:56;;;;;;;1.10;0.45;;;;;;;16.03;100.00;99405.97;7392951;19;20015;-63
2022/11/27 07:36:28;;;;;;;1.27;0.60;;;;;;;15.99;100.00;99413.91;7393128;19;20078;-63
2022/11/27 07:38:56;;;;;;;1.02;0.20;;;;;;;16.06;100.00;99402.09;7391651;19;20014;-63
2022/11/27 07:41:23;;;;;;;2.35;0.47;;;;;;;16.02;100.00;99398.06;7392043;19;20031;-63
2022/11/27 07:43:49;;;;;;;1.75;1.10;;;;;;;16.01;100.00;99408.53;7391768;19;20475;-63
2022/11/27 07:46:18;;;;;;;5.78;0.57;;;;;;;16.11;100.00;99404.13;7392729;19;20047;-63
2022/11/27 07:48:44;;;;;;;4.18;0.90;;;;;;;16.07;100.00;99423.28;7392110;19;20018;-64
2022/11/27 07:51:13;;;;;;;3.78;1.08;;;;;;;15.96;100.00;99423.38;7392282;19;20510;-63
2022/11/27 07:53:41;;;;;;;0.30;0.30;;;;;;;15.83;100.00;99417.63;7392062;19;20031;-63
2022/11/27 07:56:10;;;;;;;2.53;0.32;;;;;;;15.89;100.00;99416.31;7390283;19;20019;-63
2022/11/27 07:58:36;;;;;;;24.40;2.60;;;;;;;15.94;100.00;99417.53;7391505;19;20748;-64
2022/11/27 08:01:08;;;;;;;8.88;1.95;;;;;;;16.00;100.00;99420.28;7392819;19;20134;-63
2022/11/27 08:03:34;;;;;;;4.32;0.60;;;;;;;15.97;100.00;99421.34;7392089;19;20014;-63
2022/11/27 08:06:00;;;;;;;1.67;0.68;;;;;;;16.07;100.00;99409.25;7391676;19;20347;-63
2022/11/27 08:08:26;;;;;;;4.03;1.17;;;;;;;16.05;100.00;99414.63;7395668;19;20040;-63
2022/11/27 08:10:53;;;;;;;7.53;1.23;;;;;;;16.14;100.00;99419.91;7391320;19;20460;-63
2022/11/27 08:13:19;;;;;;;5.63;1.05;;;;;;;16.19;100.00;99433.16;7394661;19;20022;-63
2022/11/27 08:15:45;;;;;;;6.65;1.05;;;;;;;16.19;100.00;99433.16;7390571;19;20002;-62
2022/11/27 08:18:11;;;;;;;4.20;0.50;;;;;;;16.28;100.00;99430.00;7394870;19;20006;-61
2022/11/27 08:20:37;;;;;;;0.57;0.55;;;;;;;16.34;100.00;99432.75;7391479;19;20018;-62
2022/11/27 08:23:04;;;;;;;1.17;0.47;;;;;;;16.38;100.00;99434.00;7390749;19;20009;-62
2022/11/27 08:25:30;;;;;;;1.13;0.43;;;;;;;16.38;100.00;99419.94;7393634;19;20014;-62
2022/11/27 08:27:56;;;;;;;4.25;0.68;;;;;;;16.40;100.00;99425.78;7394491;19;20464;-62
2022/11/27 08:30:23;;;;;;;1.40;1.13;;;;;;;16.52;100.00;99429.28;7394219;19;20015;-62
2022/11/27 08:32:49;;;;;;;0.65;0.60;;;;;;;16.61;100.00;99429.69;7395008;19;20010;-61
2022/11/27 08:35:15;;;;;;;3.00;1.17;;;;;;;16.58;100.00;99425.13;7393969;19;20014;-62
2022/11/27 08:37:41;;;;;;;1.08;0.70;;;;;;;16.62;100.00;99427.66;7393731;19;20360;-62
2022/11/27 08:40:08;;;;;;;21.70;1.65;;;;;;;16.51;100.00;99431.34;7394220;19;20014;-62
2022/11/27 08:42:34;;;;;;;2.05;0.57;;;;;;;16.48;100.00;99432.34;7395275;19;20074;-62
2022/11/27 08:45:00;;;;;;;2.17;0.22;;;;;;;16.40;100.00;99431.41;7390871;19;20006;-62
2022/11/27 08:47:26;;;;;;;0.45;0.30;;;;;;;16.28;100.00;99424.41;7390705;19;20019;-62
2022/11/27 08:49:53;;;;;;;3.42;1.80;;;;;;;16.45;100.00;99421.41;7390417;19;20045;-62
2022/11/27 08:52:20;;;;;;;5.38;1.83;;;;;;;16.33;100.00;99420.75;7392829;19;20159;-62
2022/11/27 08:54:46;;;;;;;0.20;0.20;;;;;;;16.24;100.00;99411.91;7392707;19;20014;-62
2022/11/27 08:57:12;;;;;;;1.23;0.75;;;;;;;16.26;100.00;99421.34;7389770;19;20034;-62
2022/11/27 08:59:38;;;;;;;8.30;0.65;;;;;;;16.32;100.00;99412.84;7389052;19;20070;-62
2022/11/27 09:02:05;;;;;;;1.30;0.45;;;;;;;16.32;100.00;99408.00;7392317;19;20007;-61
2022/11/27 09:04:31;;;;;;;0.68;0.10;;;;;;;16.43;100.00;99391.03;7386261;19;20038;-62
2022/11/27 09:06:57;;;;;;;7.28;0.75;;;;;;;16.54;100.00;99390.94;7390675;19;20018;-62
2022/11/27 09:09:23;;;;;;;1.00;0.65;;;;;;;16.46;100.00;99400.44;7387003;19;20377;-62
2022/11/27 09:11:49;;;;;;;5.57;0.88;;;;;;;16.42;100.00;99406.34;7391046;19;20352;-62
2022/11/27 09:14:16;;;;;;;0.20;0.20;;;;;;;16.37;100.00;99398.72;7393525;19;20482;-62
2022/11/27 09:16:42;;;;;;;0.85;0.40;;;;;;;16.37;100.00;99395.19;7389575;19;20019;-62
2022/11/27 09:19:08;;;;;;;0.52;0.52;;;;;;;16.43;100.00;99390.25;7389747;19;20018;-62
2022/11/27 09:21:34;;;;;;;0.77;0.45;;;;;;;16.48;100.00;99390.19;7391765;19;20015;-62
2022/11/27 09:24:01;;;;;;;0.25;0.17;;;;;;;16.57;100.00;99389.88;7390360;19;20031;-61
2022/11/27 09:26:29;;;;;;;1.23;0.47;;;;;;;16.70;100.00;99388.47;7389357;19;20460;-62
2022/11/27 09:28:57;;;;;;;4.78;1.27;;;;;;;16.74;100.00;99391.75;7387706;19;20011;-62
2022/11/27 09:31:24;;;;;;;11.40;2.45;;;;;;;16.81;100.00;99394.69;7389751;19;20011;-62
2022/11/27 09:33:50;;;;;;;2.22;1.05;;;;;;;16.81;100.00;99408.00;7388675;19;20018;-62
2022/11/27 09:36:20;;;;;;;4.53;1.70;;;;;;;16.92;100.00;99399.44;7387705;19;20339;-62
2022/11/27 09:38:47;;;;;;;4.75;0.50;;;;;;;17.04;100.00;99395.19;7388586;19;20035;-62
2022/11/27 09:41:34;;;;;;;0.20;0.20;;;;;;;16.97;100.00;99387.34;7389106;19;20352;-62
2022/11/27 09:44:05;;;;;;;2.63;1.15;;;;;;;16.76;100.00;99389.16;7389162;19;20070;-62
2022/11/27 09:46:37;;;;;;;0.63;0.60;;;;;;;16.60;100.00;99394.44;7388451;19;20015;-62
2022/11/27 09:49:07;;;;;;;4.72;1.02;;;;;;;16.78;100.00;99392.19;7388535;19;20015;-62
2022/11/27 09:51:41;;;;;;;8.10;1.13;;;;;;;16.85;100.00;99395.16;7389440;19;20010;-62
2022/11/27 09:54:25;;;;;;;2.58;0.95;;;;;;;16.91;100.00;99395.09;7389490;19;20244;-62
2022/11/27 09:56:54;;;;;;;4.85;0.85;;;;;;;16.94;100.00;99394.03;7387728;19;20032;-62
2022/11/27 09:59:26;;;;;;;2.13;0.63;;;;;;;17.09;100.00;99412.00;7387445;19;20014;-62
2022/11/27 10:01:52;;;;;;;0.10;0.10;;;;;;;17.17;100.00;99412.16;7390769;19;20010;-62
2022/11/27 10:04:20;;;;;;;2.38;0.32;;;;;;;17.16;100.00;99407.81;7387736;19;20070;-62
2022/11/27 10:07:04;;;;;;;4.45;1.23;;;;;;;17.01;100.00;99405.47;7388156;19;20010;-62
2022/11/27 10:09:56;;;;;;;4.40;1.48;;;;;;;17.07;100.00;99413.81;7387976;19;20011;-62
2022/11/27 10:12:50;;;;;;;0.55;0.10;;;;;;;17.10;100.00;99418.38;7391500;19;20018;-62
2022/11/27 10:15:36;;;;;;;10.98;1.67;;;;;;;17.27;100.00;99422.50;7390529;19;20026;-62
2022/11/27 10:18:31;;;;;;;9.52;1.17;;;;;;;17.63;100.00;99425.84;7394328;19;20011;-62
2022/11/27 10:21:06;;;;;;;9.23;0.57;;;;;;;17.69;100.00;99423.75;7398398;19;20002;-62
2022/11/27 10:23:40;;;;;;;23.98;1.73;;;;;;;17.80;100.00;99426.38;7399131;19;20025;-62
2022/11/27 10:26:17;;;;;;;1.17;0.98;;;;;;;17.86;100.00;99421.44;7398250;19;19999;-62
2022/11/27 10:29:03;;;;;;;4.40;1.38;;;;;;;17.83;100.00;99416.84;7399309;19;20031;-62
2022/11/27 10:31:52;;;;;;;1.10;0.95;;;;;;;17.96;100.00;99413.31;7395285;19;20011;-62
2022/11/27 10:34:40;;;;;;;2.85;0.85;;;;;;;18.01;100.00;99413.25;7393323;19;20013;-62
2022/11/27 10:37:32;;;;;;;9.55;1.33;;;;;;;18.06;100.00;99423.63;7395403;19;20014;-62
2022/11/27 10:40:21;;;;;;;6.70;1.48;;;;;;;18.16;100.00;99407.84;7394896;19;20062;-62
2022/11/27 10:42:57;;;;;;;1.85;0.80;;;;;;;18.15;100.00;99403.50;7397622;19;20036;-62
2022/11/27 10:45:45;;;;;;;4.28;1.00;;;;;;;18.24;100.00;99405.16;7393164;19;20043;-62
2022/11/27 10:48:12;;;;;;;3.67;0.57;;;;;;;18.34;100.00;99411.13;7395252;19;20010;-62
2022/11/27 10:50:40;;;;;;;0.85;0.80;;;;;;;18.40;100.00;99425.91;7394323;19;20019;-62
2022/11/27 10:53:10;;;;;;;2.65;1.00;;;;;;;18.51;100.00;99422.91;7394187;19;20078;-62
2022/11/27 10:55:43;;;;;;;11.95;1.52;;;;;;;18.57;100.00;99420.72;7398392;19;20471;-62
2022/11/27 10:58:26;;;;;;;2.10;0.73;;;;;;;18.55;100.00;99423.34;7394133;19;20022;-62
2022/11/27 11:01:20;;;;;;;1.25;0.75;;;;;;;18.57;100.00;99417.91;7393736;19;20017;-62
2022/11/27 11:03:46;;;;;;;4.50;0.50;;;;;;;18.62;100.00;99402.94;7394915;19;20006;-62
2022/11/27 11:06:21;;;;;;;4.18;1.80;;;;;;;18.48;100.00;99401.41;7393789;19;20011;-62
2022/11/27 11:08:59;;;;;;;5.18;0.95;;;;;;;18.56;100.00;99396.66;7398788;19;20013;-62
2022/11/27 11:11:25;;;;;;;0.85;0.22;;;;;;;18.62;100.00;99394.50;7394278;19;20039;-62
2022/11/27 11:13:53;;;;;;;3.63;0.47;;;;;;;18.61;100.00;99393.72;7393695;19;20078;-62
2022/11/27 11:16:29;;;;;;;0.10;0.10;;;;;;;18.52;100.00;99385.69;7393736;19;20014;-62
2022/11/27 11:18:56;;;;;;;1.45;0.70;;;;;;;18.63;100.00;99381.88;7392943;19;20045;-62
2022/11/27 11:21:32;;;;;;;6.75;1.02;;;;;;;18.62;100.00;99383.22;7394188;19;20041;-62
2022/11/27 11:24:02;;;;;;;0.38;0.38;;;;;;;18.49;100.00;99375.50;7394106;19;20010;-62
2022/11/27 11:26:37;;;;;;;4.90;0.32;;;;;;;18.47;100.00;99366.06;7391127;19;20010;-62
2022/11/27 11:29:14;;;;;;;13.43;1.75;;;;;;;18.58;100.00;99375.06;7393044;19;20025;-62
2022/11/27 11:31:40;;;;;;;1.38;0.40;;;;;;;18.59;100.00;99361.72;7393956;19;20014;-62
2022/11/27 11:34:21;;;;;;;1.35;1.10;;;;;;;18.30;100.00;99368.41;7393255;19;20011;-62
2022/11/27 11:37:03;;;;;;;4.47;0.75;;;;;;;18.40;100.00;99372.31;7393532;19;20011;-62